createdAt,value
2023-04-13T00:01:32.460Z,81.6
2023-04-13T00:03:32.437Z,81.2
2023-04-13T00:05:32.451Z,81.2
2023-04-13T00:07:32.480Z,80.8
2023-04-13T00:09:32.622Z,80.8
2023-04-13T00:11:32.372Z,80.8
2023-04-13T00:13:32.565Z,80.5
2023-04-13T00:15:34.287Z,80
2023-04-13T00:17:32.800Z,80.8
2023-04-13T00:19:32.681Z,79
2023-04-13T00:21:32.407Z,79
2023-04-13T00:23:34.185Z,78.4
2023-04-13T00:25:32.595Z,80.2
2023-04-13T00:27:33.302Z,80.9
2023-04-13T00:29:32.467Z,81
2023-04-13T00:31:32.630Z,81.8
2023-04-13T00:33:33.483Z,80.4
2023-04-13T00:35:32.803Z,79.4
2023-04-13T00:37:32.628Z,79.4
2023-04-13T00:39:32.636Z,79.4
2023-04-13T00:41:32.562Z,79.4
2023-04-13T00:43:32.602Z,80.2
2023-04-13T00:45:34.566Z,80.2
2023-04-13T00:47:33.592Z,81
2023-04-13T00:49:34.034Z,81.1
2023-04-13T00:51:32.801Z,83
2023-04-13T00:53:32.860Z,83
2023-04-13T00:55:33.021Z,84
2023-04-13T00:57:34.079Z,83.1
2023-04-13T00:59:33.391Z,82.5
2023-04-13T01:01:32.866Z,83.3
2023-04-13T01:03:32.782Z,82
2023-04-13T01:05:38.159Z,81.8
2023-04-13T01:07:39.051Z,81.8
2023-04-13T01:09:38.217Z,81.8
2023-04-13T01:11:38.391Z,81.1
2023-04-13T01:15:35.917Z,83.3
2023-04-13T01:17:34.350Z,82.6
2023-04-13T01:19:47.680Z,78
2023-04-13T01:21:34.572Z,77.4
2023-04-13T01:23:49.057Z,73.5
2023-04-13T01:25:39.294Z,72.4
2023-04-13T01:27:44.670Z,70.9
2023-04-13T01:29:35.520Z,70
2023-04-13T01:31:33.669Z,69.3
2023-04-13T01:33:35.931Z,67.6
2023-04-13T01:35:33.828Z,67
2023-04-13T01:37:33.639Z,66.4
2023-04-13T01:39:39.903Z,66.4
2023-04-13T01:41:33.317Z,65.3
2023-04-13T01:43:38.687Z,64.4
2023-04-13T01:45:41.176Z,65.3
2023-04-13T01:47:39.430Z,67.3
2023-04-13T01:49:48.294Z,68.2
2023-04-13T01:51:37.167Z,68.9
2023-04-13T01:53:38.594Z,68.9
2023-04-13T01:55:35.213Z,68.9
2023-04-13T01:57:38.421Z,73.2
2023-04-13T01:59:33.780Z,72.5
2023-04-13T02:01:33.684Z,74.5
2023-04-13T02:03:34.351Z,76
2023-04-13T02:05:35.314Z,79.5
2023-04-13T02:07:33.860Z,78.5
2023-04-13T02:09:33.863Z,80.6
2023-04-13T02:11:37.171Z,80.6
2023-04-13T02:13:35.746Z,80.8
2023-04-13T02:15:35.291Z,80.8
2023-04-13T02:17:34.675Z,80.8
2023-04-13T02:19:36.111Z,81.7
2023-04-13T02:21:33.844Z,81.7
2023-04-13T02:23:34.531Z,82
2023-04-13T02:25:34.082Z,83.6
2023-04-13T02:27:34.398Z,82.1
2023-04-13T02:29:33.960Z,82.3
2023-04-13T02:31:33.998Z,82.3
2023-04-13T02:33:34.848Z,82.8
2023-04-13T02:35:35.585Z,83.2
2023-04-13T02:37:34.097Z,83.2
2023-04-13T02:39:35.364Z,83.9
2023-04-13T02:41:33.979Z,83.9
2023-04-13T02:43:34.051Z,84.2
2023-04-13T02:45:34.460Z,83.7
2023-04-13T02:47:34.247Z,85.1
2023-04-13T02:49:46.758Z,83.3
2023-04-13T02:51:33.974Z,84.8
2023-04-13T02:53:37.233Z,83
2023-04-13T02:55:37.606Z,83.2
2023-04-13T02:57:34.237Z,83.2
2023-04-13T02:59:34.883Z,83.2
2023-04-13T03:01:34.740Z,84.6
2023-04-13T03:03:33.930Z,83.6
2023-04-13T03:05:34.605Z,83.5
2023-04-13T03:07:34.377Z,83.4
2023-04-13T03:09:33.800Z,83.6
2023-04-13T03:11:42.431Z,82.7
2023-04-13T03:13:34.206Z,83.3
2023-04-13T03:15:34.522Z,82.3
2023-04-13T03:17:34.041Z,81.6
2023-04-13T03:19:34.089Z,82.7
2023-04-13T03:21:48.731Z,81.8
2023-04-13T03:23:34.034Z,80.6
2023-04-13T03:25:34.292Z,79.3
2023-04-13T03:27:34.012Z,74
2023-04-13T03:29:34.643Z,74.8
2023-04-13T03:31:34.062Z,75.8
2023-04-13T03:33:35.018Z,73.6
2023-04-13T03:35:35.086Z,72.6
2023-04-13T03:37:41.367Z,71
2023-04-13T03:39:34.178Z,72.8
2023-04-13T03:41:35.517Z,69.1
2023-04-13T03:43:39.837Z,68.5
2023-04-13T03:45:35.940Z,67.4
2023-04-13T03:47:34.897Z,67.4
2023-04-13T03:49:35.136Z,66.7
2023-04-13T03:51:35.458Z,63.9
2023-04-13T03:53:36.813Z,61.6
2023-04-13T03:55:39.697Z,58.5
2023-04-13T03:57:36.925Z,59
2023-04-13T03:59:36.610Z,59.3
2023-04-13T04:01:36.862Z,60.5
2023-04-13T04:03:39.854Z,59.4
2023-04-13T04:05:38.419Z,57.5
2023-04-13T04:07:37.499Z,55.7
2023-04-13T04:09:37.606Z,55.4
2023-04-13T04:11:38.258Z,56
2023-04-13T04:13:41.868Z,55.4
2023-04-13T04:15:38.811Z,54.7
2023-04-13T04:17:40.116Z,60.1
2023-04-13T04:19:39.583Z,55.2
2023-04-13T04:21:41.829Z,54.9
2023-04-13T04:23:39.742Z,57.7
2023-04-13T04:25:40.472Z,56.6
2023-04-13T04:27:41.261Z,56
2023-04-13T04:29:48.652Z,54.7
2023-04-13T04:31:42.858Z,56.8
2023-04-13T04:33:41.564Z,53.4
2023-04-13T04:35:41.629Z,56.3
2023-04-13T04:37:45.784Z,53
2023-04-13T04:39:44.307Z,53.3
2023-04-13T04:41:42.854Z,52.2
2023-04-13T04:43:43.491Z,55
2023-04-13T04:45:46.503Z,54.5
2023-04-13T04:47:49.105Z,51.8
2023-04-13T04:49:44.298Z,52.2
2023-04-13T04:51:46.622Z,53.2
2023-04-13T04:53:45.243Z,50.5
2023-04-13T04:55:50.608Z,51.4
2023-04-13T04:57:46.036Z,50.3
2023-04-13T04:59:46.828Z,53.7
2023-04-13T05:01:47.159Z,50.5
2023-04-13T05:03:55.108Z,52.5
2023-04-13T05:05:51.509Z,49.6
2023-04-13T05:07:48.028Z,48.7
2023-04-13T05:09:48.799Z,49.7
2023-04-13T05:11:49.368Z,49.7
2023-04-13T05:13:52.317Z,50.3
2023-04-13T05:15:50.563Z,52.2
2023-04-13T05:17:49.470Z,48.6
2023-04-13T05:20:00.695Z,52.3
2023-04-13T05:22:33.946Z,42.6
2023-04-13T05:22:38.174Z,48.5
2023-04-13T05:22:40.714Z,48.5
2023-04-13T05:23:51.433Z,48.5
2023-04-13T05:25:53.480Z,49.3
2023-04-13T05:27:52.048Z,49
2023-04-13T05:29:54.828Z,48.3
2023-04-13T05:31:52.309Z,50.6
2023-04-13T05:33:52.120Z,50.7
2023-04-13T05:35:52.451Z,50.9
2023-04-13T05:37:57.217Z,47.7
2023-04-13T05:39:56.301Z,51
2023-04-13T05:41:54.176Z,47.3
2023-04-13T05:43:54.200Z,48.2
2023-04-13T05:45:55.889Z,47.9
2023-04-13T05:47:55.289Z,49.3
2023-04-13T05:49:55.963Z,49.7
2023-04-13T05:51:58.161Z,50
2023-04-13T05:53:56.061Z,47.1
2023-04-13T05:55:57.291Z,47.8
2023-04-13T05:57:56.666Z,47.3
2023-04-13T06:00:00.298Z,46.8
2023-04-13T06:01:57.575Z,44.4
2023-04-13T06:03:58.821Z,44.4
2023-04-13T06:05:58.078Z,43.3
2023-04-13T06:07:58.482Z,45.9
2023-04-13T06:09:58.752Z,42.4
2023-04-13T06:11:59.189Z,41.3
2023-04-13T06:14:00.170Z,40.7
2023-04-13T06:16:00.284Z,39.9
2023-04-13T06:18:00.458Z,39.7
2023-04-13T06:20:00.913Z,38.9
2023-04-13T06:22:01.272Z,38.5
2023-04-13T06:24:05.344Z,38.5
2023-04-13T06:26:13.268Z,38.9
2023-04-13T06:28:02.147Z,38.9
2023-04-13T06:30:04.493Z,38.9
2023-04-13T06:32:02.851Z,37.7
2023-04-13T06:34:06.254Z,39
2023-04-13T06:36:04.033Z,39.6
2023-04-13T06:38:11.054Z,37.9
2023-04-13T06:40:04.269Z,37.1
2023-04-13T06:42:19.231Z,36.7
2023-04-13T06:44:08.301Z,36.7
2023-04-13T06:46:05.406Z,35.7
2023-04-13T06:48:06.010Z,34.9
2023-04-13T06:50:09.885Z,34.9
2023-04-13T06:52:07.538Z,35.7
2023-04-13T06:54:10.758Z,35.8
2023-04-13T06:56:07.981Z,36.5
2023-04-13T06:58:07.209Z,36.5
2023-04-13T07:00:25.990Z,36.5
2023-04-13T07:02:08.120Z,36.5
2023-04-13T07:04:07.967Z,35
2023-04-13T07:06:09.390Z,35
2023-04-13T07:08:09.577Z,35
2023-04-13T07:10:09.560Z,36
2023-04-13T07:12:08.698Z,36.9
2023-04-13T07:14:09.259Z,37.1
2023-04-13T07:16:10.997Z,37.1
2023-04-13T07:18:09.656Z,37
2023-04-13T07:20:10.906Z,37
2023-04-13T07:22:10.851Z,37
2023-04-13T07:24:11.285Z,36.8
2023-04-13T07:26:13.037Z,36
2023-04-13T07:28:11.402Z,35.3
2023-04-13T07:30:15.478Z,35.3
2023-04-13T07:32:11.683Z,35.3
2023-04-13T07:34:15.839Z,35.2
2023-04-13T07:36:12.517Z,36
2023-04-13T07:38:13.171Z,36
2023-04-13T07:40:14.416Z,36
2023-04-13T07:42:17.291Z,36
2023-04-13T07:44:15.405Z,35.8
2023-04-13T07:46:13.681Z,35.8
2023-04-13T07:48:13.896Z,35.3
2023-04-13T07:50:15.149Z,35.3
2023-04-13T07:52:14.451Z,35.9
2023-04-13T07:54:16.694Z,35.8
2023-04-13T07:56:15.052Z,35.8
2023-04-13T07:58:15.261Z,35.3
2023-04-13T08:00:17.185Z,35.3
2023-04-13T08:02:16.328Z,35.3
2023-04-13T08:04:16.028Z,35.5
2023-04-13T08:06:15.642Z,35.5
2023-04-13T08:08:15.901Z,35.5
2023-04-13T08:10:16.442Z,35.9
2023-04-13T08:12:16.490Z,36.4
2023-04-13T08:14:17.272Z,36.3
2023-04-13T08:16:17.077Z,36.3
2023-04-13T08:18:17.024Z,36.3
2023-04-13T08:20:17.893Z,36.3
2023-04-13T08:22:17.402Z,36.3
2023-04-13T08:24:18.007Z,36.7
2023-04-13T08:26:19.880Z,36.7
2023-04-13T08:28:18.141Z,37.6
2023-04-13T08:30:26.510Z,39.7
2023-04-13T08:32:18.677Z,41.6
2023-04-13T08:34:19.598Z,42.4
2023-04-13T08:36:22.108Z,42.4
2023-04-13T08:38:21.409Z,42.4
2023-04-13T08:40:20.267Z,42.4
2023-04-13T08:42:22.452Z,41.9
2023-04-13T08:44:23.288Z,42.6
2023-04-13T08:46:22.781Z,42.6
2023-04-13T08:48:21.162Z,42.1
2023-04-13T08:50:27.052Z,42.1
2023-04-13T08:52:23.602Z,42.6
2023-04-13T08:54:21.264Z,42.9
2023-04-13T08:56:28.281Z,42.9
2023-04-13T08:58:24.556Z,42.9
2023-04-13T09:00:22.222Z,42.9
2023-04-13T09:02:25.814Z,42.1
2023-04-13T09:04:29.927Z,42.8
2023-04-13T09:06:27.268Z,42.8
2023-04-13T09:08:24.601Z,42.8
2023-04-13T09:10:23.116Z,42.8
2023-04-13T09:12:23.970Z,42.8
2023-04-13T09:14:24.816Z,42.9
2023-04-13T09:16:28.099Z,43.4
2023-04-13T09:18:28.971Z,42.8
2023-04-13T09:20:24.026Z,43.4
2023-04-13T09:22:24.263Z,43.4
2023-04-13T09:24:25.910Z,43.4
2023-04-13T09:26:25.429Z,43.4
2023-04-13T09:28:24.854Z,43.4
2023-04-13T09:30:26.762Z,43.4
2023-04-13T09:32:26.887Z,43.4
2023-04-13T09:34:27.158Z,43.2
2023-04-13T09:36:27.924Z,43.2
2023-04-13T09:38:30.296Z,42.9
2023-04-13T09:40:26.863Z,42.9
2023-04-13T09:42:26.411Z,42.2
2023-04-13T09:44:26.584Z,41.9
2023-04-13T09:46:26.886Z,41.9
2023-04-13T09:48:27.721Z,43
2023-04-13T09:50:27.826Z,42.7
2023-04-13T09:52:27.462Z,42.2
2023-04-13T09:54:27.698Z,42.5
2023-04-13T09:56:27.816Z,42.8
2023-04-13T09:58:28.182Z,42.8
2023-04-13T10:00:29.007Z,42.1
2023-04-13T10:02:28.852Z,42.1
2023-04-13T10:04:30.272Z,41.3
2023-04-13T10:06:28.878Z,42.2
2023-04-13T10:10:29.690Z,40.8
2023-04-13T10:12:33.387Z,41.5
2023-04-13T10:14:35.055Z,41.7
2023-04-13T10:16:41.904Z,41.7
2023-04-13T10:18:41.395Z,38.8
2023-04-13T10:20:31.147Z,38
2023-04-13T10:22:30.714Z,38
2023-04-13T10:24:31.138Z,38.2
2023-04-13T10:26:31.552Z,38.2
2023-04-13T10:28:41.497Z,38.2
2023-04-13T10:30:31.687Z,37.2
2023-04-13T10:32:31.910Z,37.2
2023-04-13T10:34:33.843Z,37.6
2023-04-13T10:36:37.736Z,37.6
2023-04-13T10:38:42.460Z,37.6
2023-04-13T10:40:42.219Z,37.6
2023-04-13T10:42:51.870Z,36.7
2023-04-13T10:44:42.016Z,36.7
2023-04-13T10:46:34.571Z,36.7
2023-04-13T10:48:33.785Z,36.7
2023-04-13T10:50:34.003Z,37.3
2023-04-13T10:52:34.186Z,37.3
2023-04-13T10:54:35.040Z,37.6
2023-04-13T10:56:34.692Z,37.6
2023-04-13T10:58:34.835Z,37.6
2023-04-13T11:02:35.399Z,37.6
2023-04-13T11:04:37.792Z,37.9
2023-04-13T11:06:36.135Z,37.9
2023-04-13T11:08:35.882Z,37.9
2023-04-13T11:10:36.062Z,37.1
2023-04-13T11:12:36.267Z,37.1
2023-04-13T11:14:37.463Z,37.3
2023-04-13T11:16:45.642Z,37.3
2023-04-13T11:18:36.978Z,37.3
2023-04-13T11:20:38.617Z,37.1
2023-04-13T11:22:37.320Z,37.1
2023-04-13T11:24:37.610Z,37.2
2023-04-13T11:26:38.453Z,37.2
2023-04-13T11:28:40.525Z,37.2
2023-04-13T11:30:38.511Z,38.1
2023-04-13T11:32:40.787Z,39
2023-04-13T11:34:38.984Z,38.1
2023-04-13T11:36:39.741Z,38.7
2023-04-13T11:38:39.609Z,38.7
2023-04-13T11:40:39.320Z,39.5
2023-04-13T11:42:42.179Z,40
2023-04-13T11:44:39.841Z,40.2
2023-04-13T11:46:40.040Z,40.2
2023-04-13T11:48:40.502Z,40.2
2023-04-13T11:50:41.428Z,40.2
2023-04-13T11:52:40.870Z,40.2
2023-04-13T11:54:41.291Z,39.2
2023-04-13T11:56:41.369Z,39.2
2023-04-13T11:58:41.653Z,39.2
2023-04-13T12:00:41.930Z,39.2
2023-04-13T12:02:59.582Z,39.2
2023-04-13T12:04:42.541Z,39.1
2023-04-13T12:06:44.743Z,38.6
2023-04-13T12:08:42.722Z,38.6
2023-04-13T12:10:51.795Z,39.4
2023-04-13T12:17:04.155Z,39.4
2023-04-13T12:18:44.460Z,39.4
2023-04-13T12:20:44.653Z,39.4
2023-04-13T12:24:45.637Z,38.9
2023-04-13T12:28:44.383Z,38.9
2023-04-13T12:30:45.732Z,38.9
2023-04-13T12:32:47.281Z,38.9
2023-04-13T12:34:45.068Z,39.3
2023-04-13T12:36:44.993Z,39.5
2023-04-13T12:38:45.278Z,39.5
2023-04-13T12:40:45.406Z,39.5
2023-04-13T12:42:46.281Z,40.1
2023-04-13T12:44:45.926Z,40.1
2023-04-13T12:46:45.991Z,41.5
2023-04-13T12:48:46.359Z,42
2023-04-13T12:50:46.985Z,42
2023-04-13T12:52:46.588Z,42
2023-04-13T12:54:46.781Z,41.9
2023-04-13T12:56:47.022Z,42.5
2023-04-13T12:58:47.249Z,42.5
2023-04-13T13:00:47.550Z,42.5
2023-04-13T13:02:50.516Z,43.2
2023-04-13T13:04:48.423Z,43.1
2023-04-13T13:06:47.979Z,43.1
2023-04-13T13:08:49.551Z,43.2
2023-04-13T13:10:48.533Z,43.2
2023-04-13T13:12:48.621Z,43.2
2023-04-13T13:14:48.943Z,43.5
2023-04-13T13:16:49.007Z,43.5
2023-04-13T13:18:51.280Z,43.5
2023-04-13T13:20:49.335Z,43.5
2023-04-13T13:22:49.509Z,43.5
2023-04-13T13:24:50.025Z,43.6
2023-04-13T13:27:14.241Z,43.6
2023-04-13T13:28:50.068Z,43.9
2023-04-13T13:30:50.428Z,43.9
2023-04-13T13:32:50.584Z,43.9
2023-04-13T13:34:50.948Z,43.9
2023-04-13T13:36:50.981Z,43.9
2023-04-13T13:38:51.126Z,43.9
2023-04-13T13:40:51.598Z,43.9
2023-04-13T13:42:52.612Z,43.9
2023-04-13T13:44:51.637Z,44.1
2023-04-13T13:46:52.814Z,44.1
2023-04-13T13:49:02.918Z,44.1
2023-04-13T13:50:52.559Z,44.8
2023-04-13T13:53:03.177Z,44.8
2023-04-13T13:54:52.852Z,44.7
2023-04-13T13:56:52.794Z,44.7
2023-04-13T13:58:52.955Z,44.7
2023-04-13T14:00:53.130Z,45.3
2023-04-13T14:02:53.614Z,45.3
2023-04-13T14:04:53.474Z,45.4
2023-04-13T14:06:53.777Z,45.4
2023-04-13T14:08:53.891Z,45.8
2023-04-13T14:10:54.228Z,45.8
2023-04-13T14:12:54.370Z,45.8
2023-04-13T14:14:54.552Z,46.6
2023-04-13T14:16:54.800Z,46.6
2023-04-13T14:18:54.910Z,46.6
2023-04-13T14:20:56.342Z,46.6
2023-04-13T14:22:56.428Z,46.7
2023-04-13T14:24:55.361Z,46.7
2023-04-13T14:26:55.455Z,46.7
2023-04-13T14:28:55.667Z,47.2
2023-04-13T14:30:55.925Z,47.2
2023-04-13T14:32:56.073Z,47.3
2023-04-13T14:34:57.255Z,47.3
2023-04-13T14:36:56.337Z,47.3
2023-04-13T14:38:56.452Z,47.3
2023-04-13T14:40:56.686Z,47.3
2023-04-13T14:42:56.904Z,47.8
2023-04-13T14:44:57.407Z,47.8
2023-04-13T14:46:57.175Z,47.8
2023-04-13T14:48:57.391Z,47.8
2023-04-13T14:50:57.581Z,47.8
2023-04-13T14:52:57.550Z,48.6
2023-04-13T14:54:57.888Z,48.6
2023-04-13T14:56:57.981Z,48.6
2023-04-13T14:58:58.784Z,48.6
2023-04-13T15:00:58.232Z,48.6
2023-04-13T15:02:58.532Z,49
2023-04-13T15:04:58.702Z,49
2023-04-13T15:06:58.739Z,49.6
2023-04-13T15:08:59.194Z,49.6
2023-04-13T15:10:59.081Z,49.6
2023-04-13T15:12:59.223Z,50.1
2023-04-13T15:14:59.165Z,50.3
2023-04-13T15:16:59.719Z,50.3
2023-04-13T15:18:59.830Z,50.3
2023-04-13T15:21:01.616Z,50.3
2023-04-13T15:23:00.037Z,50.4
2023-04-13T15:25:00.099Z,50.4
2023-04-13T15:27:00.087Z,50.9
2023-04-13T15:29:00.388Z,50.9
2023-04-13T15:31:00.259Z,50.9
2023-04-13T15:33:02.008Z,51.4
2023-04-13T15:35:00.416Z,51.4
2023-04-13T15:37:00.558Z,51.8
2023-04-13T15:39:00.991Z,51.8
2023-04-13T15:41:00.821Z,51.8
2023-04-13T15:43:01.198Z,52.4
2023-04-13T15:45:02.870Z,52.4
2023-04-13T15:47:03.193Z,52.4
2023-04-13T15:49:01.720Z,52.4
2023-04-13T15:51:01.583Z,52.4
2023-04-13T15:53:01.447Z,52.6
2023-04-13T15:55:01.626Z,52.6
2023-04-13T15:57:01.718Z,52.6
2023-04-13T15:59:02.261Z,53.2
2023-04-13T16:01:03.383Z,52.7
2023-04-13T16:03:02.270Z,52.9
2023-04-13T16:05:02.380Z,52.9
2023-04-13T16:07:12.800Z,52.9
2023-04-13T16:09:02.443Z,53.4
2023-04-13T16:11:02.399Z,53.4
2023-04-13T16:13:02.570Z,53.8
2023-04-13T16:15:03.441Z,53.8
2023-04-13T16:17:04.045Z,53.8
2023-04-13T16:19:02.793Z,53.9
2023-04-13T16:21:02.913Z,53.9
2023-04-13T16:23:02.958Z,53.8
2023-04-13T16:25:03.184Z,53.8
2023-04-13T16:27:03.252Z,53.8
2023-04-13T16:29:03.741Z,53.8
2023-04-13T16:31:03.497Z,53.8
2023-04-13T16:33:04.373Z,54.3
2023-04-13T16:35:04.042Z,54.8
2023-04-13T16:37:03.414Z,54.1
2023-04-13T16:39:04.969Z,54.6
2023-04-13T16:41:03.712Z,54.6
2023-04-13T16:43:03.966Z,54.6
2023-04-13T16:45:04.573Z,54.6
2023-04-13T16:47:04.058Z,54.6
2023-04-13T16:49:03.875Z,54.6
2023-04-13T16:51:04.012Z,54.6
2023-04-13T16:53:04.123Z,54.3
2023-04-13T16:55:05.208Z,54.3
2023-04-13T16:57:04.324Z,54.3
2023-04-13T16:59:05.325Z,54.3
2023-04-13T17:01:05.192Z,54.3
2023-04-13T17:03:04.460Z,54.7
2023-04-13T17:05:05.740Z,54.7
2023-04-13T17:07:04.545Z,54.7
2023-04-13T17:09:04.874Z,54.7
2023-04-13T17:11:04.806Z,54.7
2023-04-13T17:13:04.780Z,54.7
2023-04-13T17:15:05.828Z,54.7
2023-04-13T17:17:05.135Z,54.7
2023-04-13T17:19:04.923Z,54.7
2023-04-13T17:21:04.992Z,54.7
2023-04-13T17:23:04.934Z,54.8
2023-04-13T17:25:06.174Z,55.2
2023-04-13T17:27:05.017Z,55.2
2023-04-13T17:29:05.119Z,55.2
2023-04-13T17:31:05.759Z,55.2
2023-04-13T17:33:05.362Z,55.5
2023-04-13T17:35:06.093Z,58.7
2023-04-13T17:37:05.372Z,55.4
2023-04-13T17:39:05.281Z,56.1
2023-04-13T17:41:05.504Z,56.1
2023-04-13T17:43:05.531Z,55.6
2023-04-13T17:45:06.820Z,55.6
2023-04-13T17:47:05.762Z,56.1
2023-04-13T17:49:05.620Z,56.1
2023-04-13T17:51:10.607Z,56.1
2023-04-13T17:53:05.734Z,56.3
2023-04-13T17:55:06.351Z,56.3
2023-04-13T17:57:06.920Z,56.3
2023-04-13T17:59:05.804Z,56.3
2023-04-13T18:01:07.180Z,56.3
2023-04-13T18:03:06.126Z,56.7
2023-04-13T18:05:06.837Z,56.7
2023-04-13T18:07:05.973Z,56.7
2023-04-13T18:09:06.170Z,56.9
2023-04-13T18:11:06.006Z,56.9
2023-04-13T18:13:06.023Z,56.4
2023-04-13T18:15:07.615Z,56.4
2023-04-13T18:17:06.553Z,56.4
2023-04-13T18:19:06.199Z,56.4
2023-04-13T18:21:06.203Z,56.4
2023-04-13T18:23:06.205Z,56.8
2023-04-13T18:25:06.736Z,56.9
2023-04-13T18:27:06.223Z,56.9
2023-04-13T18:29:06.206Z,56.9
2023-04-13T18:31:06.418Z,56.9
2023-04-13T18:33:06.289Z,56.5
2023-04-13T18:35:06.898Z,56.5
2023-04-13T18:37:06.241Z,56.2
2023-04-13T18:39:06.542Z,56.2
2023-04-13T18:41:06.415Z,56.8
2023-04-13T18:43:06.539Z,57.1
2023-04-13T18:45:07.520Z,56.6
2023-04-13T18:47:06.799Z,56.6
2023-04-13T18:49:06.453Z,56.4
2023-04-13T18:51:06.501Z,55.9
2023-04-13T18:53:06.495Z,56.5
2023-04-13T18:55:07.071Z,55.8
2023-04-13T18:57:06.402Z,55.8
2023-04-13T18:59:06.568Z,55.8
2023-04-13T19:01:14.710Z,55.3
2023-04-13T19:03:06.637Z,55.1
2023-04-13T19:05:07.169Z,55.1
2023-04-13T19:07:06.624Z,54.4
2023-04-13T19:09:06.541Z,54.4
2023-04-13T19:11:06.728Z,53.3
2023-04-13T19:13:06.674Z,52.7
2023-04-13T19:15:07.489Z,52.7
2023-04-13T19:17:06.817Z,52.1
2023-04-13T19:19:07.924Z,52.1
2023-04-13T19:21:06.739Z,52.1
2023-04-13T19:23:06.837Z,51.4
2023-04-13T19:25:07.922Z,51.4
2023-04-13T19:27:06.800Z,52.1
2023-04-13T19:29:09.451Z,52.6
2023-04-13T19:31:06.761Z,53.2
2023-04-13T19:33:06.901Z,53.3
2023-04-13T19:35:06.994Z,52.7
2023-04-13T19:37:06.741Z,51.5
2023-04-13T19:39:08.156Z,51.5
2023-04-13T19:41:06.857Z,50.7
2023-04-13T19:43:06.716Z,50.3
2023-04-13T19:45:07.631Z,50.3
2023-04-13T19:47:06.696Z,50.3
2023-04-13T19:49:07.003Z,50.3
2023-04-13T19:51:06.690Z,50.3
2023-04-13T19:53:06.799Z,50.5
2023-04-13T19:55:07.496Z,50.5
2023-04-13T19:57:06.593Z,50.5
2023-04-13T19:59:06.813Z,50.5
2023-04-13T20:01:06.602Z,50.5
2023-04-13T20:03:06.736Z,50.9
2023-04-13T20:05:07.383Z,50.9
2023-04-13T20:07:06.851Z,50.9
2023-04-13T20:09:07.774Z,51.2
2023-04-13T20:11:06.760Z,51.2
2023-04-13T20:13:06.538Z,51.4
2023-04-13T20:15:07.457Z,51.4
2023-04-13T20:17:06.781Z,51.4
2023-04-13T20:19:07.130Z,51.4
2023-04-13T20:21:06.562Z,51.4
2023-04-13T20:23:06.867Z,51.7
2023-04-13T20:25:06.887Z,51.7
2023-04-13T20:27:06.480Z,51.8
2023-04-13T20:29:06.412Z,51.8
2023-04-13T20:31:06.424Z,51.8
2023-04-13T20:33:07.221Z,52.1
2023-04-13T20:35:07.489Z,52.1
2023-04-13T20:37:06.369Z,52.1
2023-04-13T20:39:06.317Z,52.5
2023-04-13T20:41:06.330Z,52.5
2023-04-13T20:43:06.454Z,52.4
2023-04-13T20:45:07.800Z,52.4
2023-04-13T20:47:06.196Z,52.4
2023-04-13T20:49:06.162Z,53
2023-04-13T20:51:06.381Z,53
2023-04-13T20:53:06.147Z,53
2023-04-13T20:55:07.511Z,53
2023-04-13T20:57:06.134Z,53
2023-04-13T20:59:06.108Z,53
2023-04-13T21:01:06.328Z,53.5
2023-04-13T21:03:06.193Z,53.5
2023-04-13T21:05:06.266Z,53.5
2023-04-13T21:07:06.093Z,53.5
2023-04-13T21:09:06.196Z,53.5
2023-04-13T21:11:05.923Z,54
2023-04-13T21:13:05.856Z,53.9
2023-04-13T21:15:06.860Z,53.9
2023-04-13T21:17:05.968Z,54.6
2023-04-13T21:19:05.688Z,54.6
2023-04-13T21:21:05.829Z,54.6
2023-04-13T21:23:05.913Z,54.6
2023-04-13T21:25:06.330Z,54.6
2023-04-13T21:27:05.496Z,54.6
2023-04-13T21:29:05.629Z,54.6
2023-04-13T21:31:05.449Z,55.1
2023-04-13T21:33:05.441Z,55.3
2023-04-13T21:35:06.953Z,55.3
2023-04-13T21:37:05.309Z,55.3
2023-04-13T21:39:05.330Z,55.3
2023-04-13T21:41:05.387Z,55.3
2023-04-13T21:43:05.201Z,55.4
2023-04-13T21:45:06.090Z,55.7
2023-04-13T21:47:05.424Z,55.7
2023-04-13T21:49:05.049Z,55.7
2023-04-13T21:51:07.214Z,55.7
2023-04-13T21:53:04.917Z,56.1
2023-04-13T21:55:05.638Z,56.3
2023-04-13T21:57:05.173Z,56.3
2023-04-13T21:59:05.064Z,56.3
2023-04-13T22:01:05.272Z,56.3
2023-04-13T22:03:04.846Z,56.5
2023-04-13T22:05:05.486Z,56.5
2023-04-13T22:07:04.743Z,56.5
2023-04-13T22:09:04.622Z,56.5
2023-04-13T22:11:04.843Z,56.8
2023-04-13T22:13:04.480Z,56.7
2023-04-13T22:15:05.582Z,56.7
2023-04-13T22:17:04.444Z,56.7
2023-04-13T22:19:04.365Z,56.7
2023-04-13T22:21:04.322Z,56.7
2023-04-13T22:23:04.212Z,57.4
2023-04-13T22:25:04.653Z,57.4
2023-04-13T22:27:04.648Z,57.4
2023-04-13T22:29:04.049Z,57.4
2023-04-13T22:31:06.320Z,57.4
2023-04-13T22:33:04.015Z,57.8
2023-04-13T22:35:04.375Z,57.9
2023-04-13T22:37:03.797Z,57.9
2023-04-13T22:39:03.915Z,57.9
2023-04-13T22:41:05.667Z,57.9
2023-04-13T22:43:03.652Z,57.8
2023-04-13T22:45:04.040Z,57.8
2023-04-13T22:47:03.562Z,57.8
2023-04-13T22:49:03.528Z,57.8
2023-04-13T22:51:03.529Z,57.8
2023-04-13T22:53:03.496Z,58.4
2023-04-13T22:55:03.812Z,58.5
2023-04-13T22:57:05.144Z,58.5
2023-04-13T22:59:03.125Z,58.5
2023-04-13T23:01:03.055Z,58.5
2023-04-13T23:03:03.290Z,58.6
2023-04-13T23:05:03.294Z,58.6
2023-04-13T23:07:02.992Z,58.6
2023-04-13T23:09:02.950Z,58.6
2023-04-13T23:11:10.316Z,58.6
2023-04-13T23:13:02.537Z,58.8
2023-04-13T23:15:02.853Z,58.8
2023-04-13T23:17:02.424Z,58.8
2023-04-13T23:19:02.891Z,58.4
2023-04-13T23:21:08.767Z,58.4
2023-04-13T23:23:02.129Z,59
2023-04-13T23:25:02.038Z,59
2023-04-13T23:27:02.107Z,58.5
2023-04-13T23:29:02.101Z,58.5
2023-04-13T23:31:03.266Z,58.5
2023-04-13T23:33:01.740Z,58.5
2023-04-13T23:35:01.685Z,58.5
2023-04-13T23:37:01.709Z,58.5
2023-04-13T23:39:01.694Z,58.5
2023-04-13T23:41:01.766Z,58.5
2023-04-13T23:43:01.477Z,58.6
2023-04-13T23:45:01.188Z,58.6
2023-04-13T23:47:01.170Z,58.6
2023-04-13T23:49:01.391Z,59
2023-04-13T23:51:00.988Z,59
2023-04-13T23:53:00.907Z,59.3
2023-04-13T23:55:00.981Z,59.3
2023-04-13T23:57:00.662Z,59.7
2023-04-13T23:59:00.661Z,59.7
